Time;durP1;ratioP1;P1;durP2;ratioP2;P2;SDS_P1;SDS_P2;PMS_P1;PMS_P2;Temp;Humidity;BMP_temperature;BMP_pressure;BME280_temperature;BME280_humidity;BME280_pressure;Samples;Min_cycle;Max_cycle;Signal;HPM_P1;HPM_P2
2022/11/08 00:31:15;;;;;;;5.05;2.33;;;9.30;99.90;;;;;;6180325;28;20075;-84
2022/11/08 00:39:20;;;;;;;;;;;;;;;;;;;;;
2022/11/08 00:46:18;;;;;;;3.17;1.35;;;8.80;99.90;;;;;;6107838;29;20056;-84
2022/11/08 00:54:30;;;;;;;;;;;;;;;;;;;;;
2022/11/08 00:57:54;;;;;;;14.05;2.40;;;8.60;99.90;;;;;;6077146;29;20048;-83
2022/11/08 01:01:16;;;;;;;3.35;1.80;;;8.60;99.90;;;;;;6174938;28;20564;-83
2022/11/08 01:04:38;;;;;;;4.50;2.00;;;8.60;99.90;;;;;;6187159;28;20475;-83
2022/11/08 01:07:42;;;;;;;3.60;1.70;;;8.50;99.90;;;;;;6207907;28;20504;-84
2022/11/08 01:11:25;;;;;;;;;;;;;;;;;;;;;
2022/11/08 01:18:20;;;;;;;4.15;2.22;;;8.20;99.90;;;;;;6097318;28;20385;-84
2022/11/08 01:22:03;;;;;;;7.05;1.70;;;8.50;99.90;;;;;;6207141;28;20081;-84
2022/11/08 01:41:56;;;;;;;3.15;1.35;;;8.10;99.90;;;;;;6030006;29;20419;-83
2022/11/08 01:44:59;;;;;;;6.72;1.48;;;8.20;99.90;;;;;;6098510;29;20060;-84
2022/11/08 01:48:01;;;;;;;5.97;1.80;;;8.10;99.90;;;;;;6119107;28;20544;-84
2022/11/08 01:51:06;;;;;;;3.42;1.90;;;8.10;99.90;;;;;;6184079;28;20059;-84
2022/11/08 01:54:13;;;;;;;2.72;1.48;;;8.00;99.90;;;;;;6182207;28;20459;-83
2022/11/08 01:57:20;;;;;;;2.75;1.50;;;8.30;99.90;;;;;;6183001;28;20047;-84
2022/11/08 02:00:22;;;;;;;5.85;1.42;;;8.00;99.90;;;;;;6183307;28;20066;-84
2022/11/08 02:03:24;;;;;;;6.05;2.15;;;8.00;99.90;;;;;;6184192;28;20047;-84
2022/11/08 02:06:27;;;;;;;5.95;1.52;;;8.80;99.90;;;;;;6183852;28;20087;-84
2022/11/08 02:09:31;;;;;;;3.72;1.63;;;8.10;99.90;;;;;;6182891;28;20043;-84
2022/11/08 02:12:34;;;;;;;9.02;1.50;;;7.70;99.90;;;;;;6183880;28;20065;-84
2022/11/08 02:15:36;;;;;;;5.05;1.83;;;7.80;99.90;;;;;;6185740;28;20051;-84
2022/11/08 02:18:38;;;;;;;2.25;1.23;;;7.80;99.90;;;;;;6183635;28;20470;-84
2022/11/08 02:21:46;;;;;;;5.13;1.35;;;7.80;99.90;;;;;;6183967;28;20074;-84
2022/11/08 02:24:49;;;;;;;;;;;7.80;99.90;;;;;;6184948;28;20055;-83
2022/11/08 02:27:51;;;;;;;3.00;1.60;;;7.80;99.90;;;;;;6184632;28;19961;-84
2022/11/08 02:30:53;;;;;;;5.40;1.42;;;8.10;99.90;;;;;;6184665;28;20053;-84
2022/11/08 02:33:55;;;;;;;4.72;1.40;;;7.60;99.90;;;;;;6184458;28;20440;-84
2022/11/08 02:36:58;;;;;;;8.27;1.73;;;7.70;99.90;;;;;;6184464;28;20046;-84
2022/11/08 02:40:01;;;;;;;3.25;1.30;;;7.40;99.90;;;;;;6184096;28;20526;-83
2022/11/08 02:43:03;;;;;;;4.20;1.55;;;7.60;99.90;;;;;;6184938;28;20098;-83
2022/11/08 02:46:05;;;;;;;3.83;1.23;;;7.40;99.90;;;;;;6186925;28;20058;-84
2022/11/08 02:49:08;;;;;;;4.53;1.48;;;7.50;99.90;;;;;;6175474;28;20137;-83
2022/11/08 02:52:10;;;;;;;9.68;1.85;;;7.70;99.90;;;;;;6187119;28;20047;-83
2022/11/08 02:55:13;;;;;;;5.45;2.03;;;7.40;99.90;;;;;;6186538;28;20182;-83
2022/11/08 02:59:09;;;;;;;9.38;1.73;;;7.40;99.90;;;;;;6179963;28;20050;-82
2022/11/08 03:10:10;;;;;;;5.35;1.25;;;7.30;99.90;;;;;;6177068;28;20062;-83
2022/11/08 03:17:43;;;;;;;1.30;0.80;;;7.50;99.90;;;;;;6143824;28;20043;-83
2022/11/08 03:20:52;;;;;;;5.05;1.60;;;7.20;99.90;;;;;;6182716;28;20699;-83
2022/11/08 03:23:56;;;;;;;5.38;1.95;;;7.60;99.90;;;;;;6182349;28;20058;-83
2022/11/08 03:27:00;;;;;;;5.38;1.25;;;7.20;99.90;;;;;;6182415;28;20532;-83
2022/11/08 03:30:30;;;;;;;8.15;1.88;;;7.60;99.90;;;;;;6172216;28;20059;-83
2022/11/08 03:33:53;;;;;;;;;;;;;;;;;;;;;
2022/11/08 03:37:02;;;;;;;5.65;1.58;;;7.20;99.90;;;;;;6171352;28;20050;-83
2022/11/08 03:40:37;;;;;;;;;;;;;;;;;;;;;
2022/11/08 04:01:01;;;;;;;;;;;;;;;;;;;;;
2022/11/08 04:31:57;;;;;;;3.63;1.48;;;6.80;99.90;;;;;;5970955;29;20103;-82
2022/11/08 04:47:40;;;;;;;2.78;1.35;;;6.50;99.90;;;;;;6038981;29;20057;-83
2022/11/08 05:50:04;;;;;;;6.78;1.48;;;6.50;99.90;;;;;;6170156;28;20038;-83
2022/11/08 05:53:08;;;;;;;3.53;1.65;;;6.50;99.90;;;;;;6206470;28;20054;-85
2022/11/08 05:56:10;;;;;;;13.05;2.60;;;6.50;99.90;;;;;;6205024;28;20389;-84
2022/11/08 05:59:11;;;;;;;4.47;1.35;;;6.60;99.90;;;;;;6208860;28;20153;-83
2022/11/08 06:02:13;;;;;;;5.00;1.63;;;6.60;99.90;;;;;;6205142;28;20088;-83
2022/11/08 06:05:16;;;;;;;6.55;1.60;;;7.30;99.90;;;;;;6204516;28;20430;-83
2022/11/08 06:08:18;;;;;;;10.20;1.63;;;7.00;99.90;;;;;;6206850;28;20047;-86
2022/11/08 06:11:21;;;;;;;9.40;1.75;;;7.20;99.90;;;;;;6208020;28;20046;-85
2022/11/08 06:14:23;;;;;;;9.38;1.88;;;6.80;99.90;;;;;;6206638;28;20054;-85
2022/11/08 06:17:25;;;;;;;6.50;2.25;;;6.90;99.90;;;;;;6207202;28;20057;-83
2022/11/08 06:20:28;;;;;;;5.00;1.80;;;6.90;99.90;;;;;;6208846;28;20050;-83
2022/11/08 06:23:30;;;;;;;3.00;1.70;;;6.90;99.90;;;;;;6208754;28;20046;-83
2022/11/08 06:26:32;;;;;;;5.30;1.40;;;7.00;99.90;;;;;;6208590;28;20423;-86
2022/11/08 06:29:33;;;;;;;9.82;1.73;;;7.00;99.90;;;;;;6206270;28;20157;-85
2022/11/08 06:32:35;;;;;;;2.58;1.65;;;7.00;99.90;;;;;;6205174;28;20073;-85
2022/11/08 06:35:38;;;;;;;5.50;1.60;;;7.00;99.90;;;;;;6208006;28;20423;-84
2022/11/08 06:38:40;;;;;;;4.03;1.45;;;7.00;99.90;;;;;;6207670;28;20042;-84
2022/11/08 06:41:41;;;;;;;5.65;3.03;;;7.10;99.90;;;;;;6218148;28;20056;-83
2022/11/08 06:44:43;;;;;;;4.53;2.03;;;7.10;99.90;;;;;;6222997;28;20054;-83
2022/11/08 06:47:45;;;;;;;4.38;2.53;;;7.20;99.90;;;;;;6210944;28;20502;-84
2022/11/08 06:50:48;;;;;;;6.18;2.58;;;7.30;99.90;;;;;;6206726;28;20061;-83
2022/11/08 06:53:50;;;;;;;8.48;3.38;;;7.30;99.90;;;;;;6206483;28;20069;-84
2022/11/08 06:56:54;;;;;;;5.32;2.05;;;7.40;99.90;;;;;;6205552;28;20384;-83
2022/11/08 06:59:56;;;;;;;4.50;2.13;;;7.50;99.90;;;;;;6204905;28;20051;-83
2022/11/08 07:02:59;;;;;;;6.22;2.05;;;7.50;99.90;;;;;;6203397;28;20042;-83
2022/11/08 07:06:04;;;;;;;6.20;1.83;;;7.60;99.90;;;;;;6202714;28;20054;-83
2022/11/08 07:09:06;;;;;;;5.40;2.63;;;7.80;99.90;;;;;;6203004;28;20049;-83
2022/11/08 07:12:08;;;;;;;3.05;1.85;;;8.00;99.90;;;;;;6203492;28;20046;-83
2022/11/08 07:15:11;;;;;;;6.80;1.50;;;8.10;99.90;;;;;;6203649;28;20046;-83
2022/11/08 07:18:14;;;;;;;3.10;1.42;;;8.30;99.90;;;;;;6202025;28;20058;-83
2022/11/08 07:21:17;;;;;;;5.32;1.98;;;8.50;99.90;;;;;;6203015;28;20116;-83
2022/11/08 07:24:19;;;;;;;4.93;2.60;;;8.60;99.90;;;;;;6202201;28;20097;-83
2022/11/08 07:27:21;;;;;;;8.38;2.17;;;8.70;99.90;;;;;;6204706;28;20061;-83
2022/11/08 07:30:23;;;;;;;9.43;2.42;;;8.70;99.90;;;;;;6205008;28;20050;-84
2022/11/08 07:33:24;;;;;;;4.28;2.00;;;8.80;99.90;;;;;;6205040;28;20042;-84
2022/11/08 07:36:27;;;;;;;7.57;2.55;;;8.90;99.90;;;;;;6208133;28;20052;-84
2022/11/08 07:39:29;;;;;;;4.40;1.98;;;9.00;99.90;;;;;;6209011;28;20069;-84
2022/11/08 07:42:31;;;;;;;6.43;2.20;;;9.10;99.90;;;;;;6204968;28;20047;-84
2022/11/08 07:45:32;;;;;;;11.30;2.22;;;9.20;99.90;;;;;;6203760;28;20046;-84
2022/11/08 07:48:35;;;;;;;4.15;2.13;;;9.40;99.90;;;;;;6210508;28;20046;-83
2022/11/08 07:51:38;;;;;;;10.93;2.17;;;9.50;99.90;;;;;;6219162;28;20050;-83
2022/11/08 07:54:40;;;;;;;5.97;2.45;;;9.50;99.90;;;;;;6216533;28;20050;-84
2022/11/08 07:57:41;;;;;;;11.30;2.15;;;9.60;99.90;;;;;;6206855;28;20411;-83
2022/11/08 08:00:45;;;;;;;7.93;1.73;;;9.70;99.90;;;;;;6211223;28;20046;-84
2022/11/08 08:03:46;;;;;;;10.40;1.80;;;9.80;99.90;;;;;;6211411;28;20046;-84
2022/11/08 08:06:49;;;;;;;18.15;5.07;;;10.00;99.90;;;;;;6208924;28;20046;-84
2022/11/08 08:09:51;;;;;;;11.23;1.65;;;10.10;99.90;;;;;;6208757;28;20069;-83
2022/11/08 08:12:53;;;;;;;7.93;1.30;;;10.30;99.90;;;;;;6205993;28;20053;-84
2022/11/08 08:15:58;;;;;;;2.53;1.10;;;10.50;99.90;;;;;;6206673;28;20491;-84
2022/11/08 08:19:00;;;;;;;8.57;2.20;;;10.70;99.90;;;;;;6158654;28;20058;-84
2022/11/08 08:22:05;;;;;;;2.83;1.83;;;10.90;99.90;;;;;;6204909;28;20542;-83
2022/11/08 08:25:10;;;;;;;3.88;1.45;;;11.10;99.90;;;;;;6227158;28;20046;-83
2022/11/08 08:28:12;;;;;;;2.35;1.20;;;11.50;99.90;;;;;;6205245;28;20092;-83
2022/11/08 08:31:13;;;;;;;6.68;1.10;;;11.50;99.90;;;;;;6207181;28;20054;-83
2022/11/08 08:34:27;;;;;;;;;;;;;;;;;;;;;
2022/11/08 08:37:35;;;;;;;3.40;0.80;;;11.80;99.90;;;;;;6201841;28;20054;-82
2022/11/08 08:40:36;;;;;;;3.67;1.10;;;12.00;99.90;;;;;;6210507;28;20168;-83
2022/11/08 08:43:38;;;;;;;2.95;0.70;;;11.90;99.90;;;;;;6226364;28;20050;-84
2022/11/08 08:46:40;;;;;;;6.50;1.55;;;12.00;99.90;;;;;;6200326;28;20500;-83
2022/11/08 08:49:41;;;;;;;3.55;1.67;;;12.30;99.90;;;;;;6202310;28;20050;-83
2022/11/08 08:52:45;;;;;;;3.60;1.10;;;12.50;99.90;;;;;;6211294;28;20046;-83
2022/11/08 08:55:51;;;;;;;4.30;0.98;;;12.60;99.90;;;;;;6223655;28;20046;-82
2022/11/08 08:58:52;;;;;;;4.72;1.20;;;12.70;99.90;;;;;;6228185;28;20046;-83
2022/11/08 09:01:54;;;;;;;3.75;1.50;;;12.80;99.90;;;;;;6230436;28;20042;-83
2022/11/08 09:04:56;;;;;;;3.92;1.55;;;13.10;99.90;;;;;;6232487;28;20422;-83
2022/11/08 09:07:59;;;;;;;5.88;2.17;;;13.60;99.90;;;;;;6230813;28;20431;-82
2022/11/08 09:11:01;;;;;;;5.40;2.20;;;14.30;99.90;;;;;;6231620;28;20049;-82
2022/11/08 09:14:03;;;;;;;2.22;1.30;;;14.70;99.90;;;;;;6230898;28;20046;-82
2022/11/08 09:17:05;;;;;;;5.20;1.52;;;15.30;99.90;;;;;;6230294;28;20063;-84
2022/11/08 09:20:08;;;;;;;4.22;1.40;;;15.70;99.30;;;;;;6231108;28;20057;-84
2022/11/08 09:23:11;;;;;;;1.90;1.05;;;16.00;98.70;;;;;;6223485;28;20045;-82
2022/11/08 09:26:13;;;;;;;3.85;1.13;;;16.10;98.20;;;;;;6209132;28;20511;-83
2022/11/08 09:29:14;;;;;;;3.65;1.42;;;16.20;98.10;;;;;;6206002;28;20554;-83
2022/11/08 09:32:16;;;;;;;5.68;1.58;;;16.30;98.00;;;;;;6207149;28;21103;-83
2022/11/08 09:35:18;;;;;;;5.20;1.30;;;16.30;97.30;;;;;;6206473;28;20416;-83
2022/11/08 09:38:21;;;;;;;7.47;1.15;;;16.20;97.20;;;;;;6206279;28;20042;-82
2022/11/08 09:41:48;;;;;;;2.45;1.30;;;16.30;96.90;;;;;;6206380;28;20506;-84
2022/11/08 09:45:16;;;;;;;2.75;1.08;;;16.30;96.50;;;;;;6205201;28;20046;-83
2022/11/08 09:48:24;;;;;;;3.03;1.20;;;16.60;96.60;;;;;;6198574;28;20057;-83
2022/11/08 09:51:27;;;;;;;3.15;1.13;;;17.30;96.10;;;;;;6206405;28;20054;-83
2022/11/08 09:54:37;;;;;;;6.45;1.08;;;17.80;95.50;;;;;;6220400;28;20034;-83
2022/11/08 10:07:42;;;;;;;1.80;1.10;;;19.50;91.80;;;;;;6179432;28;20065;-82
2022/11/08 10:11:16;;;;;;;3.30;0.77;;;19.90;90.50;;;;;;6160204;28;20047;-82
2022/11/08 10:14:31;;;;;;;3.92;0.90;;;20.50;89.20;;;;;;6156034;28;20290;-83
2022/11/08 10:17:49;;;;;;;3.47;0.80;;;21.00;86.30;;;;;;6178899;28;20043;-83
2022/11/08 10:21:02;;;;;;;1.57;0.67;;;21.40;84.90;;;;;;6180900;28;20436;-83
2022/11/08 10:24:14;;;;;;;2.70;0.98;;;21.80;83.20;;;;;;6180959;28;20421;-84
2022/11/08 10:27:30;;;;;;;2.85;1.00;;;22.40;80.80;;;;;;6178513;28;20046;-88
2022/11/08 10:30:35;;;;;;;2.35;0.60;;;22.70;79.10;;;;;;6161207;28;20048;-86
2022/11/08 10:33:43;;;;;;;2.65;0.88;;;23.10;77.40;;;;;;6154881;28;20040;-86
2022/11/08 10:36:54;;;;;;;;;;;23.30;75.20;;;;;;6156271;28;20047;-86
2022/11/08 10:40:03;;;;;;;2.65;0.70;;;23.60;76.60;;;;;;6156616;28;20296;-85
2022/11/08 10:43:11;;;;;;;6.53;1.23;;;24.00;73.70;;;;;;6166332;28;20481;-87
2022/11/08 10:46:30;;;;;;;3.13;0.75;;;24.20;71.90;;;;;;6179677;28;20058;-86
2022/11/08 10:49:34;;;;;;;4.00;0.70;;;24.50;70.50;;;;;;6180558;28;20501;-87
2022/11/08 10:52:40;;;;;;;4.28;0.70;;;24.80;68.60;;;;;;6181452;28;20043;-84
2022/11/08 10:55:48;;;;;;;1.63;0.73;;;24.90;67.30;;;;;;6181277;28;20058;-84
2022/11/08 10:58:51;;;;;;;2.97;0.82;;;25.00;65.80;;;;;;6169527;28;20046;-85
2022/11/08 11:01:53;;;;;;;2.80;0.60;;;25.00;64.40;;;;;;6179717;28;20042;-84
2022/11/08 11:05:20;;;;;;;1.60;0.80;;;25.00;62.80;;;;;;6179384;28;20069;-81
2022/11/08 11:08:23;;;;;;;1.48;0.63;;;25.00;62.20;;;;;;6179447;28;20178;-82
2022/11/08 11:11:27;;;;;;;5.10;1.20;;;24.90;61.90;;;;;;6179203;28;20141;-82
2022/11/08 11:14:30;;;;;;;1.38;0.60;;;25.00;61.70;;;;;;6179113;28;20068;-83
2022/11/08 11:17:33;;;;;;;4.35;0.68;;;25.20;60.90;;;;;;6178509;28;20051;-83
2022/11/08 11:20:35;;;;;;;3.50;0.75;;;25.50;60.20;;;;;;6178951;28;20413;-82
2022/11/08 11:23:48;;;;;;;1.98;0.73;;;25.80;59.60;;;;;;6180431;28;20047;-85
2022/11/08 11:27:00;;;;;;;1.90;0.80;;;26.00;57.50;;;;;;6174951;28;20409;-83
2022/11/08 11:30:29;;;;;;;1.85;0.70;;;25.90;57.40;;;;;;6171408;28;20053;-84
2022/11/08 11:33:32;;;;;;;4.97;0.80;;;26.00;57.60;;;;;;6178992;28;20530;-84
2022/11/08 11:36:34;;;;;;;2.40;0.57;;;26.30;57.30;;;;;;6179192;28;20527;-84
2022/11/08 11:39:41;;;;;;;2.85;0.77;;;26.60;56.10;;;;;;6162615;28;20244;-85
2022/11/08 11:42:52;;;;;;;1.77;0.45;;;26.70;54.80;;;;;;6149337;28;20130;-83
2022/11/08 11:46:01;;;;;;;1.58;0.68;;;26.50;53.80;;;;;;6162891;28;20047;-85
2022/11/08 11:49:16;;;;;;;2.38;0.80;;;26.10;53.00;;;;;;6159691;28;20043;-84
2022/11/08 11:52:18;;;;;;;4.43;0.60;;;25.70;53.90;;;;;;6154789;28;20530;-83
2022/11/08 11:55:27;;;;;;;4.10;1.10;;;25.30;53.90;;;;;;6153658;29;20051;-84
2022/11/08 11:58:49;;;;;;;3.80;0.80;;;24.80;54.10;;;;;;6160904;28;20063;-83
2022/11/08 12:02:17;;;;;;;2.63;0.63;;;24.40;54.90;;;;;;6152668;28;20047;-83
2022/11/08 12:05:29;;;;;;;3.50;0.93;;;24.20;55.50;;;;;;6153734;28;20433;-83
2022/11/08 12:08:40;;;;;;;8.88;0.98;;;24.10;55.80;;;;;;6153727;28;20051;-82
2022/11/08 12:11:51;;;;;;;2.63;0.63;;;23.90;56.20;;;;;;6154732;29;20078;-84
2022/11/08 12:15:00;;;;;;;3.35;0.63;;;23.70;56.40;;;;;;6154747;28;20051;-82
2022/11/08 12:18:37;;;;;;;3.45;0.98;;;23.70;56.90;;;;;;6178246;28;20054;-84
2022/11/08 12:21:48;;;;;;;2.67;1.10;;;23.60;57.60;;;;;;6188265;28;20051;-83
2022/11/08 12:24:58;;;;;;;3.45;0.73;;;23.60;57.10;;;;;;6191094;28;20066;-83
2022/11/08 12:28:09;;;;;;;1.40;0.52;;;23.50;57.00;;;;;;6174047;28;20057;-82
2022/11/08 12:31:20;;;;;;;1.20;0.50;;;23.30;57.60;;;;;;6177104;28;20058;-82
2022/11/08 12:34:28;;;;;;;2.05;0.75;;;23.00;57.80;;;;;;6180267;28;20047;-82
2022/11/08 12:37:42;;;;;;;5.90;0.80;;;22.80;58.40;;;;;;6177417;28;20065;-83
2022/11/08 12:40:51;;;;;;;2.45;0.90;;;22.60;59.00;;;;;;6155686;28;20054;-82
2022/11/08 12:44:23;;;;;;;1.88;0.85;;;22.40;59.80;;;;;;6154160;28;20047;-82
2022/11/08 12:47:35;;;;;;;5.95;0.60;;;22.10;60.20;;;;;;6154018;28;20055;-83
2022/11/08 12:50:45;;;;;;;2.65;0.82;;;22.00;60.80;;;;;;6153252;28;20047;-85
2022/11/08 12:54:12;;;;;;;3.80;0.85;;;21.90;60.80;;;;;;6153449;28;20054;-82
2022/11/08 12:57:19;;;;;;;2.15;0.73;;;21.60;60.80;;;;;;6154179;28;20054;-84
2022/11/08 13:00:22;;;;;;;7.25;1.20;;;21.60;61.50;;;;;;6167710;28;20051;-82
2022/11/08 13:03:55;;;;;;;3.10;0.77;;;21.50;61.70;;;;;;6175947;28;20051;-83
2022/11/08 13:07:04;;;;;;;3.70;0.90;;;21.30;62.40;;;;;;6175995;28;20054;-82
2022/11/08 13:10:15;;;;;;;5.35;1.08;;;21.20;63.00;;;;;;6175103;28;20051;-83
2022/11/08 13:13:27;;;;;;;5.25;2.67;;;21.20;63.30;;;;;;6175051;28;20047;-83
2022/11/08 13:16:35;;;;;;;4.82;1.58;;;21.10;63.60;;;;;;6174816;28;20046;-83
2022/11/08 13:19:56;;;;;;;2.58;1.83;;;21.00;63.80;;;;;;6175024;28;20078;-83
2022/11/08 13:23:00;;;;;;;4.68;1.10;;;21.00;64.30;;;;;;6175169;28;20047;-83
2022/11/08 13:26:19;;;;;;;5.75;1.50;;;21.00;64.90;;;;;;6174418;28;20046;-83
2022/11/08 13:29:26;;;;;;;3.03;1.30;;;21.00;65.10;;;;;;6163347;28;20412;-83
2022/11/08 13:32:43;;;;;;;107.50;36.30;;;21.00;65.80;;;;;;6176193;28;20051;-83
2022/11/08 13:35:56;;;;;;;9.83;4.37;;;21.10;66.00;;;;;;6176007;28;20054;-82
2022/11/08 13:39:15;;;;;;;12.52;5.30;;;21.10;66.20;;;;;;6175349;28;20400;-83
2022/11/08 13:42:30;;;;;;;2.17;1.38;;;21.20;66.80;;;;;;6175660;28;20424;-84
2022/11/08 13:45:33;;;;;;;5.40;1.60;;;21.30;66.90;;;;;;6150026;28;20039;-83
2022/11/08 13:48:41;;;;;;;3.15;1.23;;;21.50;66.90;;;;;;6150831;28;20097;-82
2022/11/08 13:51:43;;;;;;;1.15;0.60;;;21.50;66.70;;;;;;6156483;29;20047;-82
2022/11/08 13:54:51;;;;;;;6.88;1.95;;;21.60;66.80;;;;;;6154487;29;20047;-82
2022/11/08 13:57:59;;;;;;;6.47;1.58;;;21.70;66.80;;;;;;6162856;28;20050;-84
2022/11/08 14:01:02;;;;;;;;;;;21.90;67.10;;;;;;6175940;28;20054;-84
2022/11/08 14:04:23;;;;;;;2.03;0.80;;;22.00;67.00;;;;;;6179914;28;20037;-83
2022/11/08 14:07:29;;;;;;;5.47;0.93;;;21.80;66.50;;;;;;6179931;28;20050;-84
2022/11/08 14:10:39;;;;;;;1.10;0.60;;;21.70;66.30;;;;;;6179318;28;20047;-85
2022/11/08 14:14:05;;;;;;;24.02;15.80;;;21.60;66.50;;;;;;6179078;28;20054;-83
2022/11/08 14:17:18;;;;;;;10.50;3.00;;;21.70;66.30;;;;;;6179583;28;20043;-84
2022/11/08 14:20:33;;;;;;;3.78;1.60;;;21.60;65.90;;;;;;6180443;28;20126;-85
2022/11/08 14:23:39;;;;;;;4.78;3.25;;;21.60;66.10;;;;;;6181325;28;20050;-84
2022/11/08 14:26:47;;;;;;;4.93;1.55;;;21.50;66.40;;;;;;6176404;28;20047;-84
2022/11/08 14:29:58;;;;;;;7.55;1.58;;;21.60;67.10;;;;;;6171956;28;20062;-85
2022/11/08 14:33:15;;;;;;;5.47;1.85;;;21.70;67.30;;;;;;6179504;28;20055;-83
2022/11/08 14:36:20;;;;;;;4.60;1.23;;;21.80;67.30;;;;;;6180435;28;20548;-84
2022/11/08 14:39:26;;;;;;;10.15;3.47;;;21.90;67.00;;;;;;6204908;23;20039;-85
2022/11/08 14:42:29;;;;;;;6.63;1.67;;;21.80;67.30;;;;;;6194161;28;20074;-84
2022/11/08 14:45:30;;;;;;;7.40;0.88;;;21.70;67.30;;;;;;6192338;28;20047;-84
2022/11/08 14:48:32;;;;;;;4.03;0.98;;;21.50;67.50;;;;;;6181629;28;20051;-86
2022/11/08 14:51:34;;;;;;;6.10;1.40;;;21.30;68.50;;;;;;6182539;28;20137;-85
2022/11/08 14:54:39;;;;;;;2.40;1.08;;;21.10;68.90;;;;;;6179216;28;20051;-85
2022/11/08 14:57:44;;;;;;;2.95;0.95;;;21.00;69.60;;;;;;6173144;28;20051;-87
2022/11/08 15:00:48;;;;;;;6.88;2.65;;;20.80;70.00;;;;;;6174902;28;20166;-85
2022/11/08 15:03:54;;;;;;;3.63;1.75;;;20.70;70.60;;;;;;6182816;28;20055;-86
2022/11/08 15:06:58;;;;;;;5.63;1.63;;;20.50;71.10;;;;;;6182119;28;20051;-86
2022/11/08 15:10:07;;;;;;;2.85;1.45;;;20.30;71.80;;;;;;6182100;28;20053;-85
2022/11/08 15:13:11;;;;;;;6.75;1.08;;;20.10;72.50;;;;;;6182930;28;20050;-85
2022/11/08 15:16:14;;;;;;;8.73;1.00;;;19.90;72.90;;;;;;6182839;28;20074;-84
2022/11/08 15:19:37;;;;;;;10.77;0.88;;;19.70;73.30;;;;;;6181044;28;20359;-83
2022/11/08 15:22:40;;;;;;;4.53;0.93;;;19.50;73.90;;;;;;6178710;28;20098;-86
2022/11/08 15:25:41;;;;;;;2.25;0.95;;;19.30;74.20;;;;;;6180690;28;20043;-85
2022/11/08 15:28:58;;;;;;;8.65;1.27;;;19.00;74.80;;;;;;6170616;28;20123;-85
2022/11/08 15:32:00;;;;;;;4.07;1.00;;;18.80;75.70;;;;;;6181040;28;20146;-86
2022/11/08 15:35:03;;;;;;;4.82;1.58;;;18.60;76.10;;;;;;6181744;28;20046;-84
2022/11/08 15:38:06;;;;;;;6.80;1.23;;;18.30;76.60;;;;;;6181062;28;20047;-84
2022/11/08 15:41:31;;;;;;;2.55;0.98;;;18.00;77.40;;;;;;6180539;28;20055;-85
2022/11/08 15:44:34;;;;;;;6.65;1.10;;;17.60;78.60;;;;;;6184431;28;20038;-84
2022/11/08 15:47:43;;;;;;;25.95;9.10;;;17.30;79.30;;;;;;6146138;29;20069;-84
2022/11/08 15:50:45;;;;;;;6.18;1.20;;;17.00;80.40;;;;;;6156386;28;20711;-84
2022/11/08 15:53:46;;;;;;;5.35;2.03;;;16.80;81.20;;;;;;6156241;28;20062;-83
2022/11/08 15:56:50;;;;;;;7.82;2.20;;;16.60;81.90;;;;;;6159066;28;20047;-83
2022/11/08 15:59:53;;;;;;;1.95;0.82;;;16.40;82.70;;;;;;6172014;28;20593;-83
2022/11/08 16:02:55;;;;;;;5.95;1.52;;;16.20;83.40;;;;;;6179992;28;20051;-85
2022/11/08 16:05:57;;;;;;;4.38;1.33;;;16.10;84.30;;;;;;6177092;28;20055;-84
2022/11/08 16:08:59;;;;;;;2.60;1.70;;;16.00;84.60;;;;;;6179108;28;20416;-84
2022/11/08 16:12:02;;;;;;;6.32;1.67;;;15.90;84.90;;;;;;6175483;28;20080;-85
2022/11/08 16:15:06;;;;;;;4.55;1.38;;;15.80;85.30;;;;;;6177782;28;20046;-85
2022/11/08 16:18:10;;;;;;;12.82;3.33;;;15.70;85.80;;;;;;6178528;28;20043;-84
2022/11/08 16:21:14;;;;;;;4.65;1.50;;;15.50;86.30;;;;;;6177754;28;20050;-84
2022/11/08 16:24:16;;;;;;;3.83;1.38;;;15.30;87.00;;;;;;6178771;28;20077;-85
2022/11/08 16:27:17;;;;;;;3.97;1.33;;;15.10;87.70;;;;;;6176894;28;20050;-85
2022/11/08 16:30:21;;;;;;;5.32;1.33;;;15.00;88.30;;;;;;6170256;28;20053;-85
2022/11/08 16:33:25;;;;;;;4.07;1.75;;;14.90;88.90;;;;;;6179737;28;20062;-84
2022/11/08 16:36:27;;;;;;;4.25;2.00;;;14.80;89.50;;;;;;6178877;28;20471;-84
2022/11/08 16:39:29;;;;;;;3.08;1.50;;;14.60;89.90;;;;;;6176462;28;20055;-84
2022/11/08 16:42:30;;;;;;;5.68;1.33;;;14.60;90.30;;;;;;6179432;28;20057;-83
2022/11/08 16:45:34;;;;;;;13.32;1.63;;;14.50;90.50;;;;;;6178360;28;20523;-85
2022/11/08 16:48:40;;;;;;;4.47;1.27;;;14.50;90.80;;;;;;6140173;29;20056;-83
2022/11/08 16:51:42;;;;;;;1.90;1.10;;;14.40;91.10;;;;;;6160425;28;20666;-84
2022/11/08 16:54:43;;;;;;;3.00;1.17;;;14.40;91.20;;;;;;6179661;28;20102;-84
2022/11/08 16:57:46;;;;;;;4.25;1.73;;;14.40;91.40;;;;;;6174645;28;20053;-84
2022/11/08 17:00:49;;;;;;;6.05;1.88;;;14.40;91.60;;;;;;6172676;28;20047;-85
2022/11/08 17:03:51;;;;;;;18.83;3.05;;;14.30;91.80;;;;;;6182002;28;20393;-85
2022/11/08 17:06:53;;;;;;;9.32;3.00;;;14.30;91.90;;;;;;6179120;28;20062;-85
2022/11/08 17:09:55;;;;;;;5.05;1.50;;;14.20;92.10;;;;;;6181419;28;20054;-84
2022/11/08 17:12:56;;;;;;;7.80;2.42;;;14.20;92.30;;;;;;6182667;28;20184;-85
2022/11/08 17:15:59;;;;;;;2.47;1.17;;;14.10;92.60;;;;;;6182840;28;20357;-84
2022/11/08 17:19:03;;;;;;;6.78;1.42;;;14.20;93.30;;;;;;6182357;28;20066;-86
2022/11/08 17:22:05;;;;;;;2.85;1.33;;;14.20;93.30;;;;;;6180803;28;20046;-84
2022/11/08 17:25:08;;;;;;;5.03;1.40;;;14.20;93.40;;;;;;6184131;28;20056;-83
2022/11/08 17:28:10;;;;;;;20.55;1.88;;;14.10;93.50;;;;;;6176813;28;20182;-84
2022/11/08 17:31:15;;;;;;;3.63;1.33;;;14.30;93.60;;;;;;6162781;28;20051;-84
2022/11/08 17:34:17;;;;;;;7.07;1.60;;;14.00;93.70;;;;;;6162883;28;20047;-84
2022/11/08 17:37:18;;;;;;;7.43;1.70;;;14.00;93.70;;;;;;6164615;28;20074;-84
2022/11/08 17:40:20;;;;;;;7.40;1.10;;;13.90;93.80;;;;;;6166795;28;20053;-83
2022/11/08 17:43:22;;;;;;;5.07;2.42;;;13.90;94.00;;;;;;6181550;28;20462;-83
2022/11/08 17:46:25;;;;;;;5.85;2.38;;;13.90;94.20;;;;;;6175546;28;20416;-85
2022/11/08 17:49:27;;;;;;;4.90;2.38;;;14.00;94.40;;;;;;6165545;28;20047;-84
2022/11/08 17:52:28;;;;;;;7.13;4.38;;;14.10;94.40;;;;;;6166950;28;20648;-84
2022/11/08 17:55:30;;;;;;;7.18;2.17;;;14.10;94.40;;;;;;6167896;29;20052;-84
2022/11/08 17:58:32;;;;;;;5.30;1.42;;;14.00;94.50;;;;;;6180545;28;20050;-84
2022/11/08 18:01:35;;;;;;;4.93;2.78;;;14.10;94.70;;;;;;6166745;28;20058;-83
2022/11/08 18:04:37;;;;;;;4.68;1.50;;;14.10;94.70;;;;;;6167442;28;20096;-85
2022/11/08 18:07:39;;;;;;;5.78;1.40;;;14.20;94.80;;;;;;6166414;28;20067;-83
2022/11/08 18:10:44;;;;;;;3.88;1.40;;;14.20;94.80;;;;;;6163426;28;20051;-84
2022/11/08 18:13:46;;;;;;;5.15;1.40;;;14.30;94.90;;;;;;6164919;28;20412;-82
2022/11/08 18:16:49;;;;;;;13.35;2.97;;;14.40;95.20;;;;;;6181865;28;20050;-83
2022/11/08 18:19:51;;;;;;;2.90;0.88;;;14.40;95.00;;;;;;6183680;28;20047;-83
2022/11/08 18:22:53;;;;;;;10.95;1.90;;;14.40;95.00;;;;;;6185689;28;20043;-85
2022/11/08 18:25:55;;;;;;;5.85;1.65;;;14.30;95.10;;;;;;6187230;28;20043;-85
2022/11/08 18:28:57;;;;;;;2.33;1.15;;;14.30;95.50;;;;;;6173200;28;20050;-83
2022/11/08 18:32:00;;;;;;;2.40;1.20;;;14.20;95.40;;;;;;6183914;28;20047;-83
2022/11/08 18:35:02;;;;;;;7.80;1.42;;;14.20;95.60;;;;;;6187837;28;20051;-85
2022/11/08 18:38:04;;;;;;;4.38;1.38;;;14.20;95.70;;;;;;6188454;28;20057;-84
2022/11/08 18:41:07;;;;;;;6.15;1.30;;;14.20;95.90;;;;;;6181228;28;20058;-84
2022/11/08 18:44:09;;;;;;;4.85;2.45;;;14.20;95.90;;;;;;6162119;28;20055;-83
2022/11/08 18:47:12;;;;;;;7.07;2.78;;;14.10;96.10;;;;;;6162938;28;20042;-83
2022/11/08 18:50:14;;;;;;;4.47;1.58;;;14.10;96.30;;;;;;6160753;28;20043;-82
2022/11/08 18:53:15;;;;;;;3.63;2.65;;;14.20;96.30;;;;;;6162004;28;20051;-84
2022/11/08 18:56:17;;;;;;;7.63;1.60;;;14.20;96.30;;;;;;6186174;28;21017;-83
2022/11/08 18:59:19;;;;;;;2.92;1.17;;;14.20;96.40;;;;;;6179250;28;20043;-85
2022/11/08 19:02:22;;;;;;;2.70;1.17;;;14.10;96.40;;;;;;6188290;28;20054;-84
2022/11/08 19:05:24;;;;;;;4.78;1.40;;;14.00;96.40;;;;;;6189630;28;20061;-84
2022/11/08 19:08:29;;;;;;;15.93;1.65;;;14.00;96.50;;;;;;6187542;28;20118;-82
2022/11/08 19:11:31;;;;;;;3.78;1.20;;;13.90;96.60;;;;;;6188308;28;20110;-83
2022/11/08 19:14:34;;;;;;;5.47;1.92;;;13.90;96.70;;;;;;6188645;28;20464;-84
2022/11/08 19:17:37;;;;;;;8.57;2.25;;;14.00;96.80;;;;;;6188720;28;20047;-82
2022/11/08 19:20:38;;;;;;;6.57;2.88;;;14.00;96.80;;;;;;6189682;28;20051;-84
2022/11/08 19:23:41;;;;;;;12.70;2.80;;;14.00;96.90;;;;;;6189878;28;20051;-84
2022/11/08 19:26:42;;;;;;;9.63;4.03;;;14.10;96.90;;;;;;6184767;28;20079;-83
2022/11/08 19:29:44;;;;;;;12.95;4.22;;;14.20;96.90;;;;;;6177960;28;20061;-83
2022/11/08 19:32:47;;;;;;;16.35;5.28;;;14.20;97.00;;;;;;6187195;28;20046;-82
2022/11/08 19:35:49;;;;;;;8.32;4.78;;;14.20;96.90;;;;;;6187957;28;20047;-83
2022/11/08 19:38:52;;;;;;;7.88;2.78;;;14.20;96.90;;;;;;6186172;28;20477;-84
2022/11/08 19:41:54;;;;;;;2.92;1.50;;;14.20;97.00;;;;;;6185849;28;20110;-83
2022/11/08 19:44:56;;;;;;;7.80;2.67;;;14.30;97.10;;;;;;6186188;28;20061;-84
2022/11/08 19:47:59;;;;;;;11.15;3.13;;;14.30;97.10;;;;;;6183661;28;20077;-82